sensor_id;sensor_type;location;lat;lon;timestamp;pressure;altitude;pressure_sealevel;temperature;humidity
44127;BME280;29786;50.798;7.302;2023-04-08T00:05:34;99730;;;7.61;100
44127;BME280;29786;50.798;7.302;2023-04-08T00:10:31;99710;;;7.6;100
44127;BME280;29786;50.798;7.302;2023-04-08T00:15:27;99730;;;7.56;100
44127;BME280;29786;50.798;7.302;2023-04-08T00:20:24;99730;;;7.62;100
44127;BME280;29786;50.798;7.302;2023-04-08T00:26:34;99730;;;7.64;100
44127;BME280;29786;50.798;7.302;2023-04-08T00:31:31;99720;;;7.56;100
44127;BME280;29786;50.798;7.302;2023-04-08T00:36:27;99730;;;7.61;100
44127;BME280;29786;50.798;7.302;2023-04-08T00:41:24;99740;;;7.61;100
44127;BME280;29786;50.798;7.302;2023-04-08T00:47:35;99730;;;7.58;100
44127;BME280;29786;50.798;7.302;2023-04-08T00:52:31;99730;;;7.46;100
44127;BME280;29786;50.798;7.302;2023-04-08T00:57:28;99730;;;7.4;100
44127;BME280;29786;50.798;7.302;2023-04-08T01:02:29;99740;;;7.38;100
44127;BME280;29786;50.798;7.302;2023-04-08T01:08:35;99740;;;7.47;100
44127;BME280;29786;50.798;7.302;2023-04-08T01:13:33;99740;;;7.51;100
44127;BME280;29786;50.798;7.302;2023-04-08T01:18:28;99740;;;7.59;100
44127;BME280;29786;50.798;7.302;2023-04-08T01:23:38;99740;;;7.52;100
44127;BME280;29786;50.798;7.302;2023-04-08T01:29:35;99740;;;7.61;100
44127;BME280;29786;50.798;7.302;2023-04-08T01:34:32;99750;;;7.55;100
44127;BME280;29786;50.798;7.302;2023-04-08T01:39:28;99750;;;7.49;100
44127;BME280;29786;50.798;7.302;2023-04-08T01:44:25;99750;;;7.5;100
44127;BME280;29786;50.798;7.302;2023-04-08T01:50:36;99750;;;7.45;100
44127;BME280;29786;50.798;7.302;2023-04-08T01:55:32;99750;;;7.42;100
44127;BME280;29786;50.798;7.302;2023-04-08T02:00:29;99750;;;7.46;100
44127;BME280;29786;50.798;7.302;2023-04-08T02:05:25;99750;;;7.53;100
44127;BME280;29786;50.798;7.302;2023-04-08T02:11:36;99750;;;7.5;100
44127;BME280;29786;50.798;7.302;2023-04-08T02:16:33;99750;;;7.5;100
44127;BME280;29786;50.798;7.302;2023-04-08T02:21:30;99760;;;7.45;100
44127;BME280;29786;50.798;7.302;2023-04-08T02:26:25;99760;;;7.49;100
44127;BME280;29786;50.798;7.302;2023-04-08T02:32:36;99760;;;7.45;100
44127;BME280;29786;50.798;7.302;2023-04-08T02:37:33;99760;;;7.45;100
44127;BME280;29786;50.798;7.302;2023-04-08T02:42:29;99760;;;7.45;100
44127;BME280;29786;50.798;7.302;2023-04-08T02:47:26;99760;;;7.39;100
44127;BME280;29786;50.798;7.302;2023-04-08T02:53:36;99760;;;7.25;100
44127;BME280;29786;50.798;7.302;2023-04-08T02:58:33;99760;;;7.19;100
44127;BME280;29786;50.798;7.302;2023-04-08T03:03:29;99760;;;7.27;100
44127;BME280;29786;50.798;7.302;2023-04-08T03:08:26;99770;;;7.28;100
44127;BME280;29786;50.798;7.302;2023-04-08T03:14:36;99770;;;7.39;100
44127;BME280;29786;50.798;7.302;2023-04-08T03:19:33;99780;;;7.4;100
44127;BME280;29786;50.798;7.302;2023-04-08T03:24:30;99780;;;7.26;100
44127;BME280;29786;50.798;7.302;2023-04-08T03:29:26;99780;;;7.25;100
44127;BME280;29786;50.798;7.302;2023-04-08T03:35:37;99780;;;7.12;100
44127;BME280;29786;50.798;7.302;2023-04-08T03:40:33;99780;;;7.04;100
44127;BME280;29786;50.798;7.302;2023-04-08T03:45:30;99780;;;7.2;100
44127;BME280;29786;50.798;7.302;2023-04-08T03:50:26;99780;;;7.19;100
44127;BME280;29786;50.798;7.302;2023-04-08T03:56:37;99780;;;7.04;100
44127;BME280;29786;50.798;7.302;2023-04-08T04:01:34;99780;;;7.14;100
44127;BME280;29786;50.798;7.302;2023-04-08T04:06:30;99780;;;7.22;100
44127;BME280;29786;50.798;7.302;2023-04-08T04:11:27;99780;;;7.14;100
44127;BME280;29786;50.798;7.302;2023-04-08T04:17:37;99790;;;7.05;100
44127;BME280;29786;50.798;7.302;2023-04-08T04:22:34;99780;;;7.19;100
44127;BME280;29786;50.798;7.302;2023-04-08T04:27:30;99770;;;6.95;100
44127;BME280;29786;50.798;7.302;2023-04-08T04:32:27;99790;;;7.13;100
44127;BME280;29786;50.798;7.302;2023-04-08T04:36:09;99790;;;7.06;100
44127;BME280;29786;50.798;7.302;2023-04-08T04:38:38;99790;;;7.12;100
44127;BME280;29786;50.798;7.302;2023-04-08T04:43:34;99800;;;7.12;100
44127;BME280;29786;50.798;7.302;2023-04-08T04:48:31;99780;;;7.1;100
44127;BME280;29786;50.798;7.302;2023-04-08T04:53:28;99800;;;7.16;100
44127;BME280;29786;50.798;7.302;2023-04-08T04:58:24;99800;;;7.14;100
44127;BME280;29786;50.798;7.302;2023-04-08T05:04:34;99800;;;7.25;100
44127;BME280;29786;50.798;7.302;2023-04-08T05:09:31;99780;;;7.17;100
44127;BME280;29786;50.798;7.302;2023-04-08T05:14:28;99800;;;7.58;100
44127;BME280;29786;50.798;7.302;2023-04-08T05:19:24;99810;;;7.31;100
44127;BME280;29786;50.798;7.302;2023-04-08T05:25:35;99810;;;7.13;100
44127;BME280;29786;50.798;7.302;2023-04-08T05:35:28;99820;;;6.91;100
44127;BME280;29786;50.798;7.302;2023-04-08T05:41:38;99830;;;7.14;100
44127;BME280;29786;50.798;7.302;2023-04-08T05:46:36;99830;;;7.22;100
44127;BME280;29786;50.798;7.302;2023-04-08T05:51:31;99840;;;7.65;100
44127;BME280;29786;50.798;7.302;2023-04-08T05:56:28;99840;;;7.35;100
44127;BME280;29786;50.798;7.302;2023-04-08T06:01:25;99840;;;7.24;100
44127;BME280;29786;50.798;7.302;2023-04-08T06:07:35;99850;;;7.53;100
44127;BME280;29786;50.798;7.302;2023-04-08T06:12:34;99850;;;7.74;100
44127;BME280;29786;50.798;7.302;2023-04-08T06:17:28;99860;;;7.67;100
44127;BME280;29786;50.798;7.302;2023-04-08T06:22:25;99870;;;7.78;100
44127;BME280;29786;50.798;7.302;2023-04-08T06:28:35;99870;;;7.64;100
44127;BME280;29786;50.798;7.302;2023-04-08T06:33:32;99870;;;7.82;100
44127;BME280;29786;50.798;7.302;2023-04-08T06:38:29;99870;;;8.26;100
44127;BME280;29786;50.798;7.302;2023-04-08T06:43:25;99880;;;8.33;100
44127;BME280;29786;50.798;7.302;2023-04-08T06:49:36;99870;;;8.34;100
44127;BME280;29786;50.798;7.302;2023-04-08T06:54:32;99870;;;8.22;100
44127;BME280;29786;50.798;7.302;2023-04-08T06:59:29;99870;;;8.27;100
44127;BME280;29786;50.798;7.302;2023-04-08T07:04:25;99880;;;8.35;100
44127;BME280;29786;50.798;7.302;2023-04-08T07:10:36;99890;;;8.52;100
44127;BME280;29786;50.798;7.302;2023-04-08T07:15:32;99890;;;8.3;100
44127;BME280;29786;50.798;7.302;2023-04-08T07:20:29;99910;;;8.33;100
44127;BME280;29786;50.798;7.302;2023-04-08T07:25:26;99910;;;7.52;100
44127;BME280;29786;50.798;7.302;2023-04-08T07:31:36;99910;;;7.72;100
44127;BME280;29786;50.798;7.302;2023-04-08T07:36:33;99910;;;7.37;100
44127;BME280;29786;50.798;7.302;2023-04-08T07:41:29;99910;;;7.31;100
44127;BME280;29786;50.798;7.302;2023-04-08T07:46:26;99920;;;7.6;100
44127;BME280;29786;50.798;7.302;2023-04-08T07:52:37;99920;;;7.8;100
44127;BME280;29786;50.798;7.302;2023-04-08T07:53:51;99920;;;7.82;100
44127;BME280;29786;50.798;7.302;2023-04-08T07:57:33;99930;;;7.81;100
44127;BME280;29786;50.798;7.302;2023-04-08T08:02:30;99940;;;7.74;100
44127;BME280;29786;50.798;7.302;2023-04-08T08:07:26;99940;;;7.71;100
44127;BME280;29786;50.798;7.302;2023-04-08T08:13:37;99950;;;7.83;100
44127;BME280;29786;50.798;7.302;2023-04-08T08:18:33;99950;;;8.06;100
44127;BME280;29786;50.798;7.302;2023-04-08T08:23:30;99950;;;7.97;100
44127;BME280;29786;50.798;7.302;2023-04-08T08:28:27;99950;;;8.1;100
44127;BME280;29786;50.798;7.302;2023-04-08T08:34:37;99960;;;9.06;100
44127;BME280;29786;50.798;7.302;2023-04-08T08:39:34;99960;;;9.45;100
44127;BME280;29786;50.798;7.302;2023-04-08T08:44:30;99970;;;9.59;100
44127;BME280;29786;50.798;7.302;2023-04-08T08:49:27;99970;;;9.57;100
44127;BME280;29786;50.798;7.302;2023-04-08T08:54:23;99970;;;9.97;100
44127;BME280;29786;50.798;7.302;2023-04-08T09:00:36;99970;;;9.68;100
44127;BME280;29786;50.798;7.302;2023-04-08T09:05:31;99960;;;9.42;100
44127;BME280;29786;50.798;7.302;2023-04-08T09:10:27;99970;;;9.6;100
44127;BME280;29786;50.798;7.302;2023-04-08T09:16:12;99980;;;9.7;100
44127;BME280;29786;50.798;7.302;2023-04-08T09:21:34;99990;;;9.64;100
44127;BME280;29786;50.798;7.302;2023-04-08T09:26:31;99970;;;9.6;100
44127;BME280;29786;50.798;7.302;2023-04-08T09:31:28;99980;;;9.26;100
44127;BME280;29786;50.798;7.302;2023-04-08T09:36:24;100000;;;9.21;100
44127;BME280;29786;50.798;7.302;2023-04-08T09:42:35;100000;;;9.09;100
44127;BME280;29786;50.798;7.302;2023-04-08T09:47:31;99970;;;9.46;100
44127;BME280;29786;50.798;7.302;2023-04-08T09:52:29;100000;;;9.81;100
44127;BME280;29786;50.798;7.302;2023-04-08T09:57:27;100000;;;10.35;100
44127;BME280;29786;50.798;7.302;2023-04-08T10:03:36;99990;;;10.42;100
44127;BME280;29786;50.798;7.302;2023-04-08T10:13:28;99990;;;10.39;100
44127;BME280;29786;50.798;7.302;2023-04-08T10:18:29;99990;;;9.82;100
44127;BME280;29786;50.798;7.302;2023-04-08T10:24:35;100000;;;10.13;100
44127;BME280;29786;50.798;7.302;2023-04-08T10:29:32;100000;;;10.82;100
44127;BME280;29786;50.798;7.302;2023-04-08T10:34:28;100000;;;11.15;100
44127;BME280;29786;50.798;7.302;2023-04-08T10:39:25;100000;;;10.96;100
44127;BME280;29786;50.798;7.302;2023-04-08T10:45:35;100000;;;11.31;100
44127;BME280;29786;50.798;7.302;2023-04-08T10:50:32;100000;;;11.45;100
44127;BME280;29786;50.798;7.302;2023-04-08T10:55:28;99990;;;11.5;100
44127;BME280;29786;50.798;7.302;2023-04-08T11:00:31;99990;;;11.75;100
44127;BME280;29786;50.798;7.302;2023-04-08T11:06:35;99980;;;12.12;100
44127;BME280;29786;50.798;7.302;2023-04-08T11:11:33;99980;;;11.79;100
44127;BME280;29786;50.798;7.302;2023-04-08T11:16:28;99980;;;11.27;100
44127;BME280;29786;50.798;7.302;2023-04-08T11:21:25;99980;;;10.77;100
44127;BME280;29786;50.798;7.302;2023-04-08T11:27:36;99980;;;10.91;100
44127;BME280;29786;50.798;7.302;2023-04-08T11:32:33;99980;;;10.73;100
44127;BME280;29786;50.798;7.302;2023-04-08T11:37:37;99970;;;10.62;100
44127;BME280;29786;50.798;7.302;2023-04-08T11:42:27;99980;;;10.47;100
44127;BME280;29786;50.798;7.302;2023-04-08T11:48:36;99970;;;10.53;100
44127;BME280;29786;50.798;7.302;2023-04-08T11:53:32;99980;;;10.85;100
44127;BME280;29786;50.798;7.302;2023-04-08T11:58:29;99980;;;10.9;100
44127;BME280;29786;50.798;7.302;2023-04-08T12:03:26;99980;;;10.89;100
44127;BME280;29786;50.798;7.302;2023-04-08T12:09:36;99980;;;11.06;100
44127;BME280;29786;50.798;7.302;2023-04-08T12:14:33;99980;;;11.23;100
44127;BME280;29786;50.798;7.302;2023-04-08T12:19:29;99990;;;11.72;100
44127;BME280;29786;50.798;7.302;2023-04-08T12:24:26;99990;;;11.82;100
44127;BME280;29786;50.798;7.302;2023-04-08T12:30:37;99980;;;11.98;91.97
44127;BME280;29786;50.798;7.302;2023-04-08T12:35:33;99970;;;12.56;76.07
44127;BME280;29786;50.798;7.302;2023-04-08T12:40:30;99970;;;12.97;67.12
44127;BME280;29786;50.798;7.302;2023-04-08T12:45:26;99970;;;12.66;65.08
44127;BME280;29786;50.798;7.302;2023-04-08T12:51:37;99970;;;12.77;58.44
44127;BME280;29786;50.798;7.302;2023-04-08T12:56:33;99970;;;13.27;69.09
44127;BME280;29786;50.798;7.302;2023-04-08T13:01:30;99960;;;13.77;59.74
44127;BME280;29786;50.798;7.302;2023-04-08T13:06:26;99970;;;13.67;56.41
44127;BME280;29786;50.798;7.302;2023-04-08T13:12:37;99960;;;14.79;54.56
44127;BME280;29786;50.798;7.302;2023-04-08T13:17:33;99960;;;14.99;50.63
44127;BME280;29786;50.798;7.302;2023-04-08T13:22:30;99960;;;14.75;54.64
44127;BME280;29786;50.798;7.302;2023-04-08T13:27:27;99960;;;14.88;52.86
44127;BME280;29786;50.798;7.302;2023-04-08T13:33:37;99950;;;16.98;52.05
44127;BME280;29786;50.798;7.302;2023-04-08T13:38:34;99940;;;19.5;42.79
44127;BME280;29786;50.798;7.302;2023-04-08T13:43:30;99930;;;16.53;49.66
44127;BME280;29786;50.798;7.302;2023-04-08T13:48:27;99950;;;14.9;56.64
44127;BME280;29786;50.798;7.302;2023-04-08T13:54:38;99950;;;13.53;65.09
44127;BME280;29786;50.798;7.302;2023-04-08T13:59:34;99950;;;14.72;60.11
44127;BME280;29786;50.798;7.302;2023-04-08T14:04:31;99930;;;14.87;58.87
44127;BME280;29786;50.798;7.302;2023-04-08T14:09:27;99950;;;14.02;60.1
44127;BME280;29786;50.798;7.302;2023-04-08T14:14:24;99940;;;14.69;66.9
44127;BME280;29786;50.798;7.302;2023-04-08T14:20:34;99940;;;18.54;50.81
44127;BME280;29786;50.798;7.302;2023-04-08T14:25:31;99920;;;17.5;48.64
44127;BME280;29786;50.798;7.302;2023-04-08T14:30:27;99930;;;16.79;52.36
44127;BME280;29786;50.798;7.302;2023-04-08T14:35:24;99930;;;17.04;51.81
44127;BME280;29786;50.798;7.302;2023-04-08T14:41:35;99930;;;16.95;49.88
44127;BME280;29786;50.798;7.302;2023-04-08T14:51:28;99930;;;17.85;47.1
44127;BME280;29786;50.798;7.302;2023-04-08T14:56:24;99930;;;16.66;50.78
44127;BME280;29786;50.798;7.302;2023-04-08T15:02:35;99930;;;17.46;51.73
44127;BME280;29786;50.798;7.302;2023-04-08T15:07:31;99940;;;17.33;49.59
44127;BME280;29786;50.798;7.302;2023-04-08T15:12:28;99930;;;16.91;52.63
44127;BME280;29786;50.798;7.302;2023-04-08T15:17:24;99930;;;18.93;47.22
44127;BME280;29786;50.798;7.302;2023-04-08T15:23:35;99930;;;18.33;47.45
44127;BME280;29786;50.798;7.302;2023-04-08T15:28:32;99930;;;17.23;49.8
44127;BME280;29786;50.798;7.302;2023-04-08T15:33:28;99930;;;16.32;52.23
44127;BME280;29786;50.798;7.302;2023-04-08T15:38:25;99930;;;15.09;54.35
44127;BME280;29786;50.798;7.302;2023-04-08T15:44:35;99930;;;13.84;62.07
44127;BME280;29786;50.798;7.302;2023-04-08T15:49:32;99920;;;16.99;54.28
44127;BME280;29786;50.798;7.302;2023-04-08T15:54:29;99930;;;16.35;52.27
44127;BME280;29786;50.798;7.302;2023-04-08T15:59:27;99930;;;14.51;58.61
44127;BME280;29786;50.798;7.302;2023-04-08T16:05:36;99930;;;13.17;69.11
44127;BME280;29786;50.798;7.302;2023-04-08T16:10:32;99920;;;13.12;73.89
44127;BME280;29786;50.798;7.302;2023-04-08T16:15:29;99930;;;13.63;74.87
44127;BME280;29786;50.798;7.302;2023-04-08T16:20:25;99930;;;18.54;49.28
44127;BME280;29786;50.798;7.302;2023-04-08T16:26:36;99940;;;18.28;48.47
44127;BME280;29786;50.798;7.302;2023-04-08T16:31:32;99940;;;16.62;52.06
44127;BME280;29786;50.798;7.302;2023-04-08T16:36:29;99950;;;14.36;62.18
44127;BME280;29786;50.798;7.302;2023-04-08T16:41:26;99950;;;13.36;72.64
44127;BME280;29786;50.798;7.302;2023-04-08T16:47:36;99960;;;12.98;75.07
44127;BME280;29786;50.798;7.302;2023-04-08T16:52:33;99960;;;12.89;78.99
44127;BME280;29786;50.798;7.302;2023-04-08T16:57:29;99960;;;12.37;83.18
44127;BME280;29786;50.798;7.302;2023-04-08T17:02:26;99940;;;12.3;86.49
44127;BME280;29786;50.798;7.302;2023-04-08T17:08:36;99940;;;14.71;80.54
44127;BME280;29786;50.798;7.302;2023-04-08T17:13:33;99940;;;17.37;59.69
44127;BME280;29786;50.798;7.302;2023-04-08T17:18:30;99940;;;18.82;54.85
44127;BME280;29786;50.798;7.302;2023-04-08T17:23:26;99950;;;18.66;54.34
44127;BME280;29786;50.798;7.302;2023-04-08T17:29:37;99960;;;18.18;55.12
44127;BME280;29786;50.798;7.302;2023-04-08T17:34:33;99960;;;15.39;63.85
44127;BME280;29786;50.798;7.302;2023-04-08T17:39:30;99960;;;13.35;86.84
44127;BME280;29786;50.798;7.302;2023-04-08T17:44:26;99970;;;12.48;96.13
44127;BME280;29786;50.798;7.302;2023-04-08T17:50:37;99970;;;11.54;100
44127;BME280;29786;50.798;7.302;2023-04-08T17:55:33;99970;;;11.41;100
44127;BME280;29786;50.798;7.302;2023-04-08T18:00:30;99970;;;11.72;100
44127;BME280;29786;50.798;7.302;2023-04-08T18:05:27;99980;;;11.66;100
44127;BME280;29786;50.798;7.302;2023-04-08T18:10:31;99980;;;10.86;100
44127;BME280;29786;50.798;7.302;2023-04-08T18:15:28;99970;;;10.85;100
44127;BME280;29786;50.798;7.302;2023-04-08T18:20:24;99980;;;10.05;100
44127;BME280;29786;50.798;7.302;2023-04-08T18:26:35;100000;;;9.54;100
44127;BME280;29786;50.798;7.302;2023-04-08T18:31:32;100010;;;9.39;100
44127;BME280;29786;50.798;7.302;2023-04-08T18:36:28;100010;;;9.3;100
44127;BME280;29786;50.798;7.302;2023-04-08T18:41:25;100010;;;9.22;100
44127;BME280;29786;50.798;7.302;2023-04-08T18:47:35;100010;;;9.06;100
44127;BME280;29786;50.798;7.302;2023-04-08T18:52:32;100020;;;8.87;100
44127;BME280;29786;50.798;7.302;2023-04-08T18:57:28;100020;;;8.54;100
44127;BME280;29786;50.798;7.302;2023-04-08T19:02:25;100030;;;8.46;100
44127;BME280;29786;50.798;7.302;2023-04-08T19:08:36;100020;;;8.27;100
44127;BME280;29786;50.798;7.302;2023-04-08T19:13:32;100030;;;8.45;100
44127;BME280;29786;50.798;7.302;2023-04-08T19:18:29;100040;;;8.8;100
44127;BME280;29786;50.798;7.302;2023-04-08T19:23:25;100040;;;9.17;100
44127;BME280;29786;50.798;7.302;2023-04-08T19:29:36;100040;;;9.18;100
44127;BME280;29786;50.798;7.302;2023-04-08T19:34:36;100040;;;9.35;100
44127;BME280;29786;50.798;7.302;2023-04-08T19:39:29;100040;;;9.52;100
44127;BME280;29786;50.798;7.302;2023-04-08T19:50:36;100030;;;9.35;100
44127;BME280;29786;50.798;7.302;2023-04-08T19:55:33;100030;;;8.97;100
44127;BME280;29786;50.798;7.302;2023-04-08T20:00:29;100030;;;8.57;100
44127;BME280;29786;50.798;7.302;2023-04-08T20:05:26;100040;;;8.27;100
44127;BME280;29786;50.798;7.302;2023-04-08T20:11:36;100040;;;8.1;100
44127;BME280;29786;50.798;7.302;2023-04-08T20:16:33;100040;;;7.86;100
44127;BME280;29786;50.798;7.302;2023-04-08T20:21:29;100040;;;7.78;100
44127;BME280;29786;50.798;7.302;2023-04-08T20:26:26;100040;;;7.77;100
44127;BME280;29786;50.798;7.302;2023-04-08T20:32:37;100050;;;7.65;100
44127;BME280;29786;50.798;7.302;2023-04-08T20:37:33;100050;;;7.65;100
44127;BME280;29786;50.798;7.302;2023-04-08T20:42:30;100050;;;7.43;100
44127;BME280;29786;50.798;7.302;2023-04-08T20:47:26;100050;;;7.27;100
44127;BME280;29786;50.798;7.302;2023-04-08T20:53:37;100050;;;7.25;100
44127;BME280;29786;50.798;7.302;2023-04-08T20:58:33;100050;;;7.27;100
44127;BME280;29786;50.798;7.302;2023-04-08T21:03:30;100050;;;7.23;100
44127;BME280;29786;50.798;7.302;2023-04-08T21:08:26;100050;;;7.16;100
44127;BME280;29786;50.798;7.302;2023-04-08T21:14:37;100050;;;7.2;100
44127;BME280;29786;50.798;7.302;2023-04-08T21:19:34;100050;;;7.27;100
44127;BME280;29786;50.798;7.302;2023-04-08T21:24:30;100050;;;7.32;100
44127;BME280;29786;50.798;7.302;2023-04-08T21:29:27;100050;;;7.44;100
44127;BME280;29786;50.798;7.302;2023-04-08T21:35:37;100050;;;7.33;100
44127;BME280;29786;50.798;7.302;2023-04-08T21:40:34;100050;;;7.31;100
44127;BME280;29786;50.798;7.302;2023-04-08T21:45:30;100030;;;7.23;100
44127;BME280;29786;50.798;7.302;2023-04-08T21:50:27;100060;;;7.29;100
44127;BME280;29786;50.798;7.302;2023-04-08T21:56:38;100050;;;7.18;100
44127;BME280;29786;50.798;7.302;2023-04-08T22:01:34;100060;;;7.3;100
44127;BME280;29786;50.798;7.302;2023-04-08T22:06:31;100040;;;7.09;100
44127;BME280;29786;50.798;7.302;2023-04-08T22:11:27;100060;;;7.13;100
44127;BME280;29786;50.798;7.302;2023-04-08T22:16:24;100070;;;6.93;100
44127;BME280;29786;50.798;7.302;2023-04-08T22:22:35;100070;;;7.11;100
44127;BME280;29786;50.798;7.302;2023-04-08T22:27:31;100070;;;7.26;100
44127;BME280;29786;50.798;7.302;2023-04-08T22:32:28;100070;;;7.24;100
44127;BME280;29786;50.798;7.302;2023-04-08T22:38:38;100080;;;7.16;100
44127;BME280;29786;50.798;7.302;2023-04-08T22:43:35;100070;;;7.38;100
44127;BME280;29786;50.798;7.302;2023-04-08T22:48:31;100080;;;7.25;100
44127;BME280;29786;50.798;7.302;2023-04-08T22:53:28;100080;;;7.4;100
44127;BME280;29786;50.798;7.302;2023-04-08T22:58:24;100080;;;7.53;100
44127;BME280;29786;50.798;7.302;2023-04-08T23:04:35;100070;;;7.34;100
44127;BME280;29786;50.798;7.302;2023-04-08T23:09:31;100070;;;7.23;100
44127;BME280;29786;50.798;7.302;2023-04-08T23:14:28;100070;;;7.47;100
44127;BME280;29786;50.798;7.302;2023-04-08T23:19:25;100070;;;7.37;100
44127;BME280;29786;50.798;7.302;2023-04-08T23:25:35;100070;;;7.44;100
44127;BME280;29786;50.798;7.302;2023-04-08T23:30:32;100070;;;7.44;100
44127;BME280;29786;50.798;7.302;2023-04-08T23:35:28;100070;;;7.36;100
44127;BME280;29786;50.798;7.302;2023-04-08T23:40:25;100070;;;7.42;100
44127;BME280;29786;50.798;7.302;2023-04-08T23:46:36;100070;;;7.42;100
44127;BME280;29786;50.798;7.302;2023-04-08T23:51:32;100070;;;7.55;100
44127;BME280;29786;50.798;7.302;2023-04-08T23:56:29;100070;;;7.55;100
